Historyczne dane pomiarowe

Dodano dane terminowe – wersja testowa.

Dane z okresu 1951-2019

Wersja bazy: 1.34 [2019-03-16, lista zmian], aktualizacja planowana na 2019-04-15

Dane meteo z obszaru Polski uzyskane na podstawie danych udostępnionych przez Instytut Meteorologii i Gospodarki Wodnej – Państwowy Instytut Badawczy.

 

Wybierz Datę:    

       

TemperaturaWilgotnośćZachmurzenieWiatrCiśnienieWidzialnośćZjawiska
 Data    tng td wb rh cc ccl cl cm ch dir g1 g2 mslp ppp      
1994-06-18 00:00:00 3.0--- 2.1 2.694wxwxwx0wx--1018.1 975.8 0.0---wx
1994-06-18 01:00:00 3.0--- 2.1 2.694wxwxwx0wx--1018.0 975.7----wx
1994-06-18 02:00:00 3.0--- 2.1 2.694wxwxwx0wx--1017.9 975.6----wx
1994-06-18 03:00:00 3.9--- 2.5 3.391wxwxwx0wx--1017.3 975.2----wx
1994-06-18 04:00:00 5.1--- 3.3 4.388wxwxwx0wx--1016.9 975.0----wx
1994-06-18 05:00:00 6.9--- 5.0 6.088wxwxwxwxwx0wx--1016.5 974.8----wx
1994-06-18 06:00:00 10.3--- 6.8 8.579wxwxwx0wx--1015.7 974.6 0.0---wx
1994-06-18 07:00:00 13.8--- 8.0 10.768wxwxwxwx0wx--1015.0 974.4----wx
1994-06-18 08:00:00 15.2--- 7.8 11.261wxwxwxwx0wx--1014.7 974.3----wx
1994-06-18 09:00:00 16.6--- 7.7 11.856wxwxwxwx2wx--1013.9 973.7----wx
1994-06-18 10:00:00 18.2--- 11.0 14.063wxwxwxwx3wx--1013.3 973.3----wx
1994-06-18 11:00:00 18.5--- 9.1 13.254wxwxwxwx5wx--1013.2 973.3----wx
1994-06-18 12:00:00 19.0--- 9.7 13.755wxwxwxwx3wx--1012.7 972.9 0.0---wx
1994-06-18 13:00:00 19.1--- 10.0 13.956wxwxwx3wx--1012.5 972.7----wx
1994-06-18 14:00:00 18.5--- 10.5 13.960wxwxwx1wx--1012.1 972.2----wx
1994-06-18 15:00:00 18.6--- 9.0 13.253wxwxwx4wx--1011.9 972.1----wx
1994-06-18 16:00:00 18.1--- 9.0 13.055wxwxwxwx2wx--1011.3 971.4----wx
1994-06-18 17:00:00 18.3--- 10.5 13.860wxwxwxwx1wx--1010.5 970.7----wx
1994-06-18 18:00:00 18.1--- 10.2 13.660wxwxwxwx1wx--1010.0 970.2 0.0---wxw1
1994-06-18 19:00:00 18.8--- 9.0 13.353wxwxwx3wx--1009.6 969.9----wx
1994-06-18 20:00:00 15.2--- 12.5 13.684wxwxwx1wx--1011.5 971.2----wxw1
1994-06-18 21:00:00 14.6--- 11.5 12.882wxwxwx2wx--1011.8 971.4----wxw1
1994-06-18 22:00:00 13.4--- 12.0 12.691wxwxwx2wx--1011.7 971.2----wxw1
1994-06-18 23:00:00 13.4--- 12.0 12.691wxwxwx0wx--1011.6 971.1----wxw1

 

Źródłem pochodzenia danych jest Instytut Meteorologii i Gospodarki Wodnej – Państwowy Instytut Badawczy. Dane Instytutu Meteorologii i Gospodarki Wodnej – Państwowego Instytutu Badawczego zostały przetworzone.

Dane źródłowe można odnaleźć na stronie https://dane.imgw.pl